sensor_id;sensor_type;location;lat;lon;timestamp;temperature;humidity
22852;DHT22;11592;45.460;9.240;2024-01-15T00:01:07;2.80;99.90
22852;DHT22;11592;45.460;9.240;2024-01-15T00:03:34;2.30;99.90
22852;DHT22;11592;45.460;9.240;2024-01-15T00:06:01;2.40;99.90
22852;DHT22;11592;45.460;9.240;2024-01-15T00:08:28;2.40;99.90
22852;DHT22;11592;45.460;9.240;2024-01-15T00:10:55;2.30;99.90
22852;DHT22;11592;45.460;9.240;2024-01-15T00:13:22;2.30;99.90
22852;DHT22;11592;45.460;9.240;2024-01-15T00:15:49;2.40;99.90
22852;DHT22;11592;45.460;9.240;2024-01-15T00:18:16;2.40;99.90
22852;DHT22;11592;45.460;9.240;2024-01-15T00:20:43;2.30;99.90
22852;DHT22;11592;45.460;9.240;2024-01-15T00:23:10;2.30;99.90
22852;DHT22;11592;45.460;9.240;2024-01-15T00:25:37;2.30;99.90
22852;DHT22;11592;45.460;9.240;2024-01-15T00:28:04;2.30;99.90
22852;DHT22;11592;45.460;9.240;2024-01-15T00:30:31;2.20;99.90
22852;DHT22;11592;45.460;9.240;2024-01-15T00:32:58;2.10;99.90
22852;DHT22;11592;45.460;9.240;2024-01-15T00:35:25;2.00;99.90
22852;DHT22;11592;45.460;9.240;2024-01-15T00:37:51;1.90;99.90
22852;DHT22;11592;45.460;9.240;2024-01-15T00:40:18;1.90;99.90
22852;DHT22;11592;45.460;9.240;2024-01-15T00:42:45;1.90;99.90
22852;DHT22;11592;45.460;9.240;2024-01-15T00:45:12;3.70;99.90
22852;DHT22;11592;45.460;9.240;2024-01-15T00:47:39;1.80;99.90
22852;DHT22;11592;45.460;9.240;2024-01-15T00:50:06;1.80;99.90
22852;DHT22;11592;45.460;9.240;2024-01-15T00:52:33;1.80;99.90
22852;DHT22;11592;45.460;9.240;2024-01-15T00:55:00;1.80;99.90
22852;DHT22;11592;45.460;9.240;2024-01-15T00:57:27;2.00;99.90
22852;DHT22;11592;45.460;9.240;2024-01-15T00:59:54;1.90;99.90
22852;DHT22;11592;45.460;9.240;2024-01-15T01:02:21;2.00;99.90
22852;DHT22;11592;45.460;9.240;2024-01-15T01:04:48;2.00;99.90
22852;DHT22;11592;45.460;9.240;2024-01-15T01:07:14;1.90;99.90
22852;DHT22;11592;45.460;9.240;2024-01-15T01:09:41;1.80;99.90
22852;DHT22;11592;45.460;9.240;2024-01-15T01:12:08;2.50;99.90
22852;DHT22;11592;45.460;9.240;2024-01-15T01:14:35;2.00;99.90
22852;DHT22;11592;45.460;9.240;2024-01-15T01:17:02;2.00;99.90
22852;DHT22;11592;45.460;9.240;2024-01-15T01:19:29;2.10;99.90
22852;DHT22;11592;45.460;9.240;2024-01-15T01:21:57;2.20;99.90
22852;DHT22;11592;45.460;9.240;2024-01-15T01:24:24;2.20;99.90
22852;DHT22;11592;45.460;9.240;2024-01-15T01:26:51;2.30;99.90
22852;DHT22;11592;45.460;9.240;2024-01-15T01:31:45;2.50;99.90
22852;DHT22;11592;45.460;9.240;2024-01-15T01:34:16;2.60;99.90
22852;DHT22;11592;45.460;9.240;2024-01-15T01:41:39;2.70;99.90
22852;DHT22;11592;45.460;9.240;2024-01-15T01:49:01;2.80;99.90
22852;DHT22;11592;45.460;9.240;2024-01-15T01:51:34;2.80;99.90
22852;DHT22;11592;45.460;9.240;2024-01-15T01:58:56;2.70;99.90
22852;DHT22;11592;45.460;9.240;2024-01-15T02:06:18;2.60;99.90
22852;DHT22;11592;45.460;9.240;2024-01-15T02:18:41;2.70;99.90
22852;DHT22;11592;45.460;9.240;2024-01-15T02:23:38;2.70;99.90
22852;DHT22;11592;45.460;9.240;2024-01-15T02:26:05;2.70;99.90
22852;DHT22;11592;45.460;9.240;2024-01-15T02:45:46;3.00;99.90
22852;DHT22;11592;45.460;9.240;2024-01-15T02:55:35;2.80;99.90
22852;DHT22;11592;45.460;9.240;2024-01-15T02:58:03;2.90;99.90
22852;DHT22;11592;45.460;9.240;2024-01-15T03:02:57;2.80;99.90
22852;DHT22;11592;45.460;9.240;2024-01-15T03:17:43;2.50;99.90
22852;DHT22;11592;45.460;9.240;2024-01-15T03:20:11;2.60;99.90
22852;DHT22;11592;45.460;9.240;2024-01-15T03:22:38;2.50;99.90
22852;DHT22;11592;45.460;9.240;2024-01-15T03:25:06;2.60;99.90
22852;DHT22;11592;45.460;9.240;2024-01-15T03:27:33;3.00;99.90
22852;DHT22;11592;45.460;9.240;2024-01-15T03:32:29;2.70;99.90
22852;DHT22;11592;45.460;9.240;2024-01-15T03:34:56;2.80;99.90
22852;DHT22;11592;45.460;9.240;2024-01-15T03:37:23;2.80;99.90
22852;DHT22;11592;45.460;9.240;2024-01-15T03:39:49;2.80;99.90
22852;DHT22;11592;45.460;9.240;2024-01-15T03:44:44;2.90;99.90
22852;DHT22;11592;45.460;9.240;2024-01-15T03:47:11;2.90;99.90
22852;DHT22;11592;45.460;9.240;2024-01-15T03:49:38;2.90;99.90
22852;DHT22;11592;45.460;9.240;2024-01-15T03:52:05;2.80;99.90
22852;DHT22;11592;45.460;9.240;2024-01-15T03:54:32;2.80;99.90
22852;DHT22;11592;45.460;9.240;2024-01-15T03:59:26;2.90;99.90
22852;DHT22;11592;45.460;9.240;2024-01-15T04:01:53;3.00;99.90
22852;DHT22;11592;45.460;9.240;2024-01-15T04:04:20;3.00;99.90
22852;DHT22;11592;45.460;9.240;2024-01-15T04:06:47;3.00;99.90
22852;DHT22;11592;45.460;9.240;2024-01-15T04:09:14;2.90;99.90
22852;DHT22;11592;45.460;9.240;2024-01-15T04:14:09;2.90;99.90
22852;DHT22;11592;45.460;9.240;2024-01-15T04:16:37;2.90;99.90
22852;DHT22;11592;45.460;9.240;2024-01-15T04:21:31;2.90;99.90
22852;DHT22;11592;45.460;9.240;2024-01-15T04:23:59;2.80;99.90
22852;DHT22;11592;45.460;9.240;2024-01-15T04:31:26;2.70;99.90
22852;DHT22;11592;45.460;9.240;2024-01-15T04:33:56;2.70;99.90
22852;DHT22;11592;45.460;9.240;2024-01-15T04:43:46;2.80;99.90
22852;DHT22;11592;45.460;9.240;2024-01-15T04:46:13;2.80;99.90
22852;DHT22;11592;45.460;9.240;2024-01-15T04:48:40;2.70;99.90
22852;DHT22;11592;45.460;9.240;2024-01-15T04:51:09;2.70;99.90
22852;DHT22;11592;45.460;9.240;2024-01-15T04:53:36;2.70;99.90
22852;DHT22;11592;45.460;9.240;2024-01-15T04:56:03;2.70;99.90
22852;DHT22;11592;45.460;9.240;2024-01-15T04:58:30;2.70;99.90
22852;DHT22;11592;45.460;9.240;2024-01-15T05:00:56;2.70;99.90
22852;DHT22;11592;45.460;9.240;2024-01-15T05:03:24;2.70;99.90
22852;DHT22;11592;45.460;9.240;2024-01-15T05:05:51;2.80;99.90
22852;DHT22;11592;45.460;9.240;2024-01-15T05:08:18;2.80;99.90
22852;DHT22;11592;45.460;9.240;2024-01-15T05:10:45;2.80;99.90
22852;DHT22;11592;45.460;9.240;2024-01-15T05:13:12;2.70;99.90
22852;DHT22;11592;45.460;9.240;2024-01-15T05:15:39;2.80;99.90
22852;DHT22;11592;45.460;9.240;2024-01-15T05:20:34;2.90;99.90
22852;DHT22;11592;45.460;9.240;2024-01-15T05:23:01;3.00;99.90
22852;DHT22;11592;45.460;9.240;2024-01-15T05:25:28;3.00;99.90
22852;DHT22;11592;45.460;9.240;2024-01-15T05:27:55;2.90;99.90
22852;DHT22;11592;45.460;9.240;2024-01-15T05:30:22;3.00;99.90
22852;DHT22;11592;45.460;9.240;2024-01-15T05:35:16;3.00;99.90
22852;DHT22;11592;45.460;9.240;2024-01-15T05:37:45;3.00;99.90
22852;DHT22;11592;45.460;9.240;2024-01-15T05:40:12;3.00;99.90
22852;DHT22;11592;45.460;9.240;2024-01-15T05:42:42;3.00;99.90
22852;DHT22;11592;45.460;9.240;2024-01-15T05:45:09;3.10;99.90
22852;DHT22;11592;45.460;9.240;2024-01-15T05:47:36;3.10;99.90
22852;DHT22;11592;45.460;9.240;2024-01-15T05:50:04;2.90;99.90
22852;DHT22;11592;45.460;9.240;2024-01-15T05:52:31;2.90;99.90
22852;DHT22;11592;45.460;9.240;2024-01-15T05:59:53;2.80;99.90
22852;DHT22;11592;45.460;9.240;2024-01-15T06:04:47;2.80;99.90
22852;DHT22;11592;45.460;9.240;2024-01-15T06:07:15;2.80;99.90
22852;DHT22;11592;45.460;9.240;2024-01-15T06:09:41;2.80;99.90
22852;DHT22;11592;45.460;9.240;2024-01-15T06:12:08;2.70;99.90
22852;DHT22;11592;45.460;9.240;2024-01-15T06:17:03;2.60;99.90
22852;DHT22;11592;45.460;9.240;2024-01-15T06:19:29;2.60;99.90
22852;DHT22;11592;45.460;9.240;2024-01-15T06:21:57;2.60;99.90
22852;DHT22;11592;45.460;9.240;2024-01-15T06:24:24;2.60;99.90
22852;DHT22;11592;45.460;9.240;2024-01-15T06:26:51;2.60;99.90
22852;DHT22;11592;45.460;9.240;2024-01-15T06:29:18;2.50;99.90
22852;DHT22;11592;45.460;9.240;2024-01-15T06:36:40;2.50;99.90
22852;DHT22;11592;45.460;9.240;2024-01-15T06:39:07;2.50;99.90
22852;DHT22;11592;45.460;9.240;2024-01-15T06:41:34;2.60;99.90
22852;DHT22;11592;45.460;9.240;2024-01-15T06:44:01;2.50;99.90
22852;DHT22;11592;45.460;9.240;2024-01-15T06:46:28;2.60;99.90
22852;DHT22;11592;45.460;9.240;2024-01-15T06:48:55;2.50;99.90
22852;DHT22;11592;45.460;9.240;2024-01-15T07:01:11;2.40;99.90
22852;DHT22;11592;45.460;9.240;2024-01-15T07:03:38;2.40;99.90
22852;DHT22;11592;45.460;9.240;2024-01-15T07:11:03;2.30;99.90
22852;DHT22;11592;45.460;9.240;2024-01-15T07:23:20;2.30;99.90
22852;DHT22;11592;45.460;9.240;2024-01-15T08:10:08;2.00;99.90
22852;DHT22;11592;45.460;9.240;2024-01-15T08:52:03;1.80;99.90
22852;DHT22;11592;45.460;9.240;2024-01-15T09:01:53;2.00;99.90
22852;DHT22;11592;45.460;9.240;2024-01-15T09:33:49;2.40;99.90
22852;DHT22;11592;45.460;9.240;2024-01-15T09:48:32;2.50;99.90
22852;DHT22;11592;45.460;9.240;2024-01-15T09:51:02;2.70;99.90
22852;DHT22;11592;45.460;9.240;2024-01-15T09:53:30;2.80;99.90
22852;DHT22;11592;45.460;9.240;2024-01-15T10:00:54;3.40;99.90
22852;DHT22;11592;45.460;9.240;2024-01-15T10:03:21;3.60;99.90
22852;DHT22;11592;45.460;9.240;2024-01-15T10:05:49;3.60;99.90
22852;DHT22;11592;45.460;9.240;2024-01-15T10:08:16;3.80;99.90
22852;DHT22;11592;45.460;9.240;2024-01-15T10:10:43;4.00;99.90
22852;DHT22;11592;45.460;9.240;2024-01-15T10:13:10;4.00;99.90
22852;DHT22;11592;45.460;9.240;2024-01-15T10:15:38;4.10;99.90
22852;DHT22;11592;45.460;9.240;2024-01-15T10:23:00;8.70;99.90
22852;DHT22;11592;45.460;9.240;2024-01-15T10:25:27;4.90;99.90
22852;DHT22;11592;45.460;9.240;2024-01-15T10:28:04;5.00;99.90
22852;DHT22;11592;45.460;9.240;2024-01-15T10:30:32;5.00;99.90
22852;DHT22;11592;45.460;9.240;2024-01-15T10:33:00;5.10;99.90
22852;DHT22;11592;45.460;9.240;2024-01-15T10:35:31;5.00;99.90
22852;DHT22;11592;45.460;9.240;2024-01-15T10:38:02;5.10;99.90
22852;DHT22;11592;45.460;9.240;2024-01-15T10:40:29;5.10;99.90
22852;DHT22;11592;45.460;9.240;2024-01-15T10:42:56;5.00;99.90
22852;DHT22;11592;45.460;9.240;2024-01-15T10:45:24;5.00;99.90
22852;DHT22;11592;45.460;9.240;2024-01-15T10:47:51;5.00;99.90
22852;DHT22;11592;45.460;9.240;2024-01-15T10:50:20;5.10;99.90
22852;DHT22;11592;45.460;9.240;2024-01-15T10:52:47;5.10;99.90
22852;DHT22;11592;45.460;9.240;2024-01-15T10:55:14;5.20;99.90
22852;DHT22;11592;45.460;9.240;2024-01-15T10:57:48;5.20;99.90
22852;DHT22;11592;45.460;9.240;2024-01-15T11:00:16;5.20;99.90
22852;DHT22;11592;45.460;9.240;2024-01-15T11:02:43;5.30;99.90
22852;DHT22;11592;45.460;9.240;2024-01-15T11:05:11;5.30;99.90
22852;DHT22;11592;45.460;9.240;2024-01-15T11:07:39;5.30;99.90
22852;DHT22;11592;45.460;9.240;2024-01-15T11:10:08;5.30;99.90
22852;DHT22;11592;45.460;9.240;2024-01-15T11:12:41;5.20;99.90
22852;DHT22;11592;45.460;9.240;2024-01-15T11:17:58;5.40;99.90
22852;DHT22;11592;45.460;9.240;2024-01-15T11:20:27;5.60;99.90
22852;DHT22;11592;45.460;9.240;2024-01-15T11:22:54;5.60;99.90
22852;DHT22;11592;45.460;9.240;2024-01-15T11:25:23;5.50;99.90
22852;DHT22;11592;45.460;9.240;2024-01-15T11:27:52;5.60;99.90
22852;DHT22;11592;45.460;9.240;2024-01-15T11:30:24;5.60;99.90
22852;DHT22;11592;45.460;9.240;2024-01-15T11:40:22;6.50;99.90
22852;DHT22;11592;45.460;9.240;2024-01-15T11:43:06;6.50;99.90
22852;DHT22;11592;45.460;9.240;2024-01-15T11:45:37;7.10;99.90
22852;DHT22;11592;45.460;9.240;2024-01-15T11:48:11;7.60;99.90
22852;DHT22;11592;45.460;9.240;2024-01-15T11:50:44;9.90;99.90
22852;DHT22;11592;45.460;9.240;2024-01-15T11:55:51;13.10;99.90
22852;DHT22;11592;45.460;9.240;2024-01-15T11:58:18;15.50;99.90
22852;DHT22;11592;45.460;9.240;2024-01-15T12:00:48;15.60;99.90
22852;DHT22;11592;45.460;9.240;2024-01-15T12:03:16;16.40;99.90
22852;DHT22;11592;45.460;9.240;2024-01-15T12:05:43;17.10;98.40
22852;DHT22;11592;45.460;9.240;2024-01-15T12:08:10;17.30;96.40
22852;DHT22;11592;45.460;9.240;2024-01-15T12:10:39;17.60;97.70
22852;DHT22;11592;45.460;9.240;2024-01-15T12:15:40;17.70;96.20
22852;DHT22;11592;45.460;9.240;2024-01-15T12:18:13;17.70;95.40
22852;DHT22;11592;45.460;9.240;2024-01-15T12:20:41;18.00;94.30
22852;DHT22;11592;45.460;9.240;2024-01-15T12:23:09;16.10;93.00
22852;DHT22;11592;45.460;9.240;2024-01-15T12:25:40;17.90;93.20
22852;DHT22;11592;45.460;9.240;2024-01-15T12:28:07;17.80;93.90
22852;DHT22;11592;45.460;9.240;2024-01-15T12:30:35;18.10;94.30
22852;DHT22;11592;45.460;9.240;2024-01-15T12:33:03;18.40;93.50
22852;DHT22;11592;45.460;9.240;2024-01-15T12:35:31;18.30;92.50
22852;DHT22;11592;45.460;9.240;2024-01-15T12:38:00;18.50;91.80
22852;DHT22;11592;45.460;9.240;2024-01-15T12:40:30;18.40;92.10
22852;DHT22;11592;45.460;9.240;2024-01-15T12:42:58;18.10;92.20
22852;DHT22;11592;45.460;9.240;2024-01-15T12:45:25;18.30;91.90
22852;DHT22;11592;45.460;9.240;2024-01-15T12:47:52;18.50;91.80
22852;DHT22;11592;45.460;9.240;2024-01-15T12:50:24;18.10;91.30
22852;DHT22;11592;45.460;9.240;2024-01-15T12:52:51;17.40;92.80
22852;DHT22;11592;45.460;9.240;2024-01-15T12:55:18;17.60;93.10
22852;DHT22;11592;45.460;9.240;2024-01-15T12:57:45;18.10;92.50
22852;DHT22;11592;45.460;9.240;2024-01-15T13:00:13;18.40;92.20
22852;DHT22;11592;45.460;9.240;2024-01-15T13:02:42;18.50;93.00
22852;DHT22;11592;45.460;9.240;2024-01-15T13:05:11;17.40;91.70
22852;DHT22;11592;45.460;9.240;2024-01-15T13:07:40;18.90;91.00
22852;DHT22;11592;45.460;9.240;2024-01-15T13:10:07;18.90;90.80
22852;DHT22;11592;45.460;9.240;2024-01-15T13:12:37;18.90;90.80
22852;DHT22;11592;45.460;9.240;2024-01-15T13:15:05;19.00;91.40
22852;DHT22;11592;45.460;9.240;2024-01-15T13:17:32;19.00;91.60
22852;DHT22;11592;45.460;9.240;2024-01-15T13:19:59;19.20;90.80
22852;DHT22;11592;45.460;9.240;2024-01-15T13:22:27;19.50;90.00
22852;DHT22;11592;45.460;9.240;2024-01-15T13:24:59;19.80;88.70
22852;DHT22;11592;45.460;9.240;2024-01-15T13:27:26;20.00;87.60
22852;DHT22;11592;45.460;9.240;2024-01-15T13:29:53;19.60;88.30
22852;DHT22;11592;45.460;9.240;2024-01-15T13:32:25;19.60;88.80
22852;DHT22;11592;45.460;9.240;2024-01-15T13:34:59;19.40;88.90
22852;DHT22;11592;45.460;9.240;2024-01-15T13:37:26;19.30;89.40
22852;DHT22;11592;45.460;9.240;2024-01-15T13:42:23;19.40;87.90
22852;DHT22;11592;45.460;9.240;2024-01-15T13:44:50;19.40;88.80
22852;DHT22;11592;45.460;9.240;2024-01-15T13:47:17;19.40;88.30
22852;DHT22;11592;45.460;9.240;2024-01-15T13:49:45;19.20;89.10
22852;DHT22;11592;45.460;9.240;2024-01-15T13:52:12;19.20;88.90
22852;DHT22;11592;45.460;9.240;2024-01-15T13:54:39;19.30;89.00
22852;DHT22;11592;45.460;9.240;2024-01-15T13:57:17;19.60;89.70
22852;DHT22;11592;45.460;9.240;2024-01-15T13:59:45;19.70;89.30
22852;DHT22;11592;45.460;9.240;2024-01-15T14:02:12;19.60;88.20
22852;DHT22;11592;45.460;9.240;2024-01-15T14:04:42;19.20;88.60
22852;DHT22;11592;45.460;9.240;2024-01-15T14:07:09;19.10;89.50
22852;DHT22;11592;45.460;9.240;2024-01-15T14:09:36;19.10;90.10
22852;DHT22;11592;45.460;9.240;2024-01-15T14:12:04;19.10;90.10
22852;DHT22;11592;45.460;9.240;2024-01-15T14:14:33;18.90;90.50
22852;DHT22;11592;45.460;9.240;2024-01-15T14:17:00;18.90;90.40
22852;DHT22;11592;45.460;9.240;2024-01-15T14:19:27;19.10;90.10
22852;DHT22;11592;45.460;9.240;2024-01-15T14:21:54;19.00;90.40
22852;DHT22;11592;45.460;9.240;2024-01-15T14:24:22;17.20;91.40
22852;DHT22;11592;45.460;9.240;2024-01-15T14:31:47;13.30;99.90
22852;DHT22;11592;45.460;9.240;2024-01-15T14:34:13;12.80;99.90
22852;DHT22;11592;45.460;9.240;2024-01-15T14:36:40;12.60;99.90
22852;DHT22;11592;45.460;9.240;2024-01-15T14:41:36;12.20;99.90
22852;DHT22;11592;45.460;9.240;2024-01-15T14:44:03;12.10;99.90
22852;DHT22;11592;45.460;9.240;2024-01-15T14:51:25;11.80;99.90
22852;DHT22;11592;45.460;9.240;2024-01-15T14:58:48;11.30;99.90
22852;DHT22;11592;45.460;9.240;2024-01-15T15:16:11;10.80;99.90
22852;DHT22;11592;45.460;9.240;2024-01-15T15:18:40;10.80;99.90
22852;DHT22;11592;45.460;9.240;2024-01-15T15:21:10;10.80;99.90
22852;DHT22;11592;45.460;9.240;2024-01-15T15:23:38;10.70;99.90
22852;DHT22;11592;45.460;9.240;2024-01-15T15:43:29;10.30;99.90
22852;DHT22;11592;45.460;9.240;2024-01-15T15:45:59;10.20;99.90
22852;DHT22;11592;45.460;9.240;2024-01-15T16:10:47;9.30;99.90
22852;DHT22;11592;45.460;9.240;2024-01-15T16:13:19;9.20;99.90
22852;DHT22;11592;45.460;9.240;2024-01-15T17:10:58;7.80;99.90
22852;DHT22;11592;45.460;9.240;2024-01-15T17:13:28;7.70;99.90
22852;DHT22;11592;45.460;9.240;2024-01-15T17:28:12;7.70;99.90
22852;DHT22;11592;45.460;9.240;2024-01-15T17:33:06;7.70;99.90
22852;DHT22;11592;45.460;9.240;2024-01-15T17:45:23;7.40;99.90
22852;DHT22;11592;45.460;9.240;2024-01-15T18:00:10;7.50;99.90
22852;DHT22;11592;45.460;9.240;2024-01-15T18:02:38;7.40;99.90
22852;DHT22;11592;45.460;9.240;2024-01-15T18:10:02;7.30;99.90
22852;DHT22;11592;45.460;9.240;2024-01-15T18:14:59;7.30;99.90
22852;DHT22;11592;45.460;9.240;2024-01-15T18:27:16;7.20;99.90
22852;DHT22;11592;45.460;9.240;2024-01-15T18:32:14;7.20;99.90
22852;DHT22;11592;45.460;9.240;2024-01-15T18:44:34;7.10;99.90
22852;DHT22;11592;45.460;9.240;2024-01-15T18:49:30;7.10;99.90
22852;DHT22;11592;45.460;9.240;2024-01-15T18:52:00;7.10;99.90
22852;DHT22;11592;45.460;9.240;2024-01-15T19:09:15;6.90;99.90
22852;DHT22;11592;45.460;9.240;2024-01-15T19:36:22;7.00;99.90
22852;DHT22;11592;45.460;9.240;2024-01-15T19:43:45;6.90;99.90
22852;DHT22;11592;45.460;9.240;2024-01-15T19:53:34;6.80;99.90
22852;DHT22;11592;45.460;9.240;2024-01-15T19:56:01;6.80;99.90
22852;DHT22;11592;45.460;9.240;2024-01-15T19:58:28;6.80;99.90
22852;DHT22;11592;45.460;9.240;2024-01-15T20:00:55;6.60;99.90
22852;DHT22;11592;45.460;9.240;2024-01-15T20:03:26;6.50;99.90
22852;DHT22;11592;45.460;9.240;2024-01-15T20:20:37;6.30;99.90
22852;DHT22;11592;45.460;9.240;2024-01-15T20:23:04;6.20;99.90
22852;DHT22;11592;45.460;9.240;2024-01-15T20:25:31;6.00;99.90
22852;DHT22;11592;45.460;9.240;2024-01-15T20:27:59;6.00;99.90
22852;DHT22;11592;45.460;9.240;2024-01-15T20:30:26;6.00;99.90
22852;DHT22;11592;45.460;9.240;2024-01-15T20:32:53;6.00;99.90
22852;DHT22;11592;45.460;9.240;2024-01-15T20:40:21;5.80;99.90
22852;DHT22;11592;45.460;9.240;2024-01-15T20:42:48;5.90;99.90
22852;DHT22;11592;45.460;9.240;2024-01-15T20:45:14;6.00;99.90
22852;DHT22;11592;45.460;9.240;2024-01-15T20:47:42;6.40;99.90
22852;DHT22;11592;45.460;9.240;2024-01-15T20:50:09;6.00;99.90
22852;DHT22;11592;45.460;9.240;2024-01-15T20:52:36;6.00;99.90
22852;DHT22;11592;45.460;9.240;2024-01-15T20:55:06;5.80;99.90
22852;DHT22;11592;45.460;9.240;2024-01-15T20:57:35;5.70;99.90
22852;DHT22;11592;45.460;9.240;2024-01-15T21:02:29;5.60;99.90
22852;DHT22;11592;45.460;9.240;2024-01-15T21:04:56;5.60;99.90
22852;DHT22;11592;45.460;9.240;2024-01-15T21:07:23;5.40;99.90
22852;DHT22;11592;45.460;9.240;2024-01-15T21:09:50;5.40;99.90
22852;DHT22;11592;45.460;9.240;2024-01-15T21:12:16;5.50;99.90
22852;DHT22;11592;45.460;9.240;2024-01-15T21:14:44;5.70;99.90
22852;DHT22;11592;45.460;9.240;2024-01-15T21:17:11;5.90;99.90
22852;DHT22;11592;45.460;9.240;2024-01-15T21:19:37;5.90;99.90
22852;DHT22;11592;45.460;9.240;2024-01-15T21:22:04;5.80;99.90
22852;DHT22;11592;45.460;9.240;2024-01-15T21:24:31;6.60;99.90
22852;DHT22;11592;45.460;9.240;2024-01-15T21:26:58;5.90;99.90
22852;DHT22;11592;45.460;9.240;2024-01-15T21:29:25;5.70;99.90
22852;DHT22;11592;45.460;9.240;2024-01-15T21:31:52;5.60;99.90
22852;DHT22;11592;45.460;9.240;2024-01-15T21:34:19;5.30;99.90
22852;DHT22;11592;45.460;9.240;2024-01-15T21:36:48;5.30;99.90
22852;DHT22;11592;45.460;9.240;2024-01-15T21:39:16;5.20;99.90
22852;DHT22;11592;45.460;9.240;2024-01-15T21:41:44;5.10;99.90
22852;DHT22;11592;45.460;9.240;2024-01-15T21:44:12;5.30;99.90
22852;DHT22;11592;45.460;9.240;2024-01-15T21:46:39;5.10;99.90
22852;DHT22;11592;45.460;9.240;2024-01-15T21:49:06;5.00;99.90
22852;DHT22;11592;45.460;9.240;2024-01-15T21:51:33;5.00;99.90
22852;DHT22;11592;45.460;9.240;2024-01-15T21:54:01;4.90;99.90
22852;DHT22;11592;45.460;9.240;2024-01-15T22:03:50;4.70;99.90
22852;DHT22;11592;45.460;9.240;2024-01-15T22:25:59;4.20;99.90
22852;DHT22;11592;45.460;9.240;2024-01-15T22:28:27;4.10;99.90
22852;DHT22;11592;45.460;9.240;2024-01-15T22:30:54;4.10;99.90
22852;DHT22;11592;45.460;9.240;2024-01-15T22:33:21;4.10;99.90
22852;DHT22;11592;45.460;9.240;2024-01-15T22:35:48;4.00;99.90
22852;DHT22;11592;45.460;9.240;2024-01-15T22:38:15;4.00;99.90
22852;DHT22;11592;45.460;9.240;2024-01-15T22:40:42;4.00;99.90
22852;DHT22;11592;45.460;9.240;2024-01-15T22:43:09;4.00;99.90
22852;DHT22;11592;45.460;9.240;2024-01-15T22:45:36;4.00;99.90
22852;DHT22;11592;45.460;9.240;2024-01-15T22:48:03;4.00;99.90
22852;DHT22;11592;45.460;9.240;2024-01-15T22:50:30;4.00;99.90
22852;DHT22;11592;45.460;9.240;2024-01-15T22:52:57;3.90;99.90
22852;DHT22;11592;45.460;9.240;2024-01-15T22:55:24;3.90;99.90
22852;DHT22;11592;45.460;9.240;2024-01-15T22:57:51;3.90;99.90
22852;DHT22;11592;45.460;9.240;2024-01-15T23:00:18;3.80;99.90
22852;DHT22;11592;45.460;9.240;2024-01-15T23:02:46;3.80;99.90
22852;DHT22;11592;45.460;9.240;2024-01-15T23:05:13;3.70;99.90
22852;DHT22;11592;45.460;9.240;2024-01-15T23:07:40;3.80;99.90
22852;DHT22;11592;45.460;9.240;2024-01-15T23:10:08;3.70;99.90
22852;DHT22;11592;45.460;9.240;2024-01-15T23:12:36;3.80;99.90
22852;DHT22;11592;45.460;9.240;2024-01-15T23:15:03;3.70;99.90
22852;DHT22;11592;45.460;9.240;2024-01-15T23:17:30;4.40;99.90
22852;DHT22;11592;45.460;9.240;2024-01-15T23:19:57;3.70;99.90
22852;DHT22;11592;45.460;9.240;2024-01-15T23:22:24;3.70;99.90
22852;DHT22;11592;45.460;9.240;2024-01-15T23:29:46;3.60;99.90
22852;DHT22;11592;45.460;9.240;2024-01-15T23:32:13;3.60;99.90
22852;DHT22;11592;45.460;9.240;2024-01-15T23:34:40;3.50;99.90
22852;DHT22;11592;45.460;9.240;2024-01-15T23:37:07;3.60;99.90
22852;DHT22;11592;45.460;9.240;2024-01-15T23:39:34;4.40;99.90
22852;DHT22;11592;45.460;9.240;2024-01-15T23:42:00;3.60;99.90
22852;DHT22;11592;45.460;9.240;2024-01-15T23:44:28;3.40;99.90
22852;DHT22;11592;45.460;9.240;2024-01-15T23:46:55;3.50;99.90
22852;DHT22;11592;45.460;9.240;2024-01-15T23:49:22;3.40;99.90
22852;DHT22;11592;45.460;9.240;2024-01-15T23:51:49;4.00;99.90
22852;DHT22;11592;45.460;9.240;2024-01-15T23:54:16;3.40;99.90
22852;DHT22;11592;45.460;9.240;2024-01-15T23:56:44;3.40;99.90
22852;DHT22;11592;45.460;9.240;2024-01-15T23:59:12;3.40;99.90
